sensor_id;sensor_type;location;lat;lon;timestamp;P1;durP1;ratioP1;P2;durP2;ratioP2
14847;SDS011;7516;43.570;1.448;2023-12-20T00:01:03;16.10;;;11.87;;
14847;SDS011;7516;43.570;1.448;2023-12-20T00:03:30;18.03;;;11.80;;
14847;SDS011;7516;43.570;1.448;2023-12-20T00:05:59;15.60;;;12.27;;
14847;SDS011;7516;43.570;1.448;2023-12-20T00:08:27;14.83;;;11.67;;
14847;SDS011;7516;43.570;1.448;2023-12-20T00:10:54;15.50;;;11.53;;
14847;SDS011;7516;43.570;1.448;2023-12-20T00:13:23;14.80;;;11.37;;
14847;SDS011;7516;43.570;1.448;2023-12-20T00:15:51;14.50;;;10.97;;
14847;SDS011;7516;43.570;1.448;2023-12-20T00:18:18;14.23;;;11.47;;
14847;SDS011;7516;43.570;1.448;2023-12-20T00:20:46;15.70;;;11.10;;
14847;SDS011;7516;43.570;1.448;2023-12-20T00:23:13;15.23;;;11.13;;
14847;SDS011;7516;43.570;1.448;2023-12-20T00:25:41;13.23;;;11.03;;
14847;SDS011;7516;43.570;1.448;2023-12-20T00:28:08;14.90;;;11.07;;
14847;SDS011;7516;43.570;1.448;2023-12-20T00:30:37;13.37;;;10.53;;
14847;SDS011;7516;43.570;1.448;2023-12-20T00:33:04;13.63;;;10.63;;
14847;SDS011;7516;43.570;1.448;2023-12-20T00:35:32;15.23;;;10.10;;
14847;SDS011;7516;43.570;1.448;2023-12-20T00:37:59;15.67;;;10.43;;
14847;SDS011;7516;43.570;1.448;2023-12-20T00:40:27;13.03;;;9.47;;
14847;SDS011;7516;43.570;1.448;2023-12-20T00:42:54;11.00;;;9.13;;
14847;SDS011;7516;43.570;1.448;2023-12-20T00:45:22;12.53;;;9.80;;
14847;SDS011;7516;43.570;1.448;2023-12-20T00:47:51;11.70;;;9.63;;
14847;SDS011;7516;43.570;1.448;2023-12-20T00:50:19;12.30;;;9.37;;
14847;SDS011;7516;43.570;1.448;2023-12-20T00:52:47;11.30;;;8.70;;
14847;SDS011;7516;43.570;1.448;2023-12-20T00:55:14;14.10;;;9.23;;
14847;SDS011;7516;43.570;1.448;2023-12-20T00:57:42;11.73;;;9.00;;
14847;SDS011;7516;43.570;1.448;2023-12-20T01:00:10;13.40;;;9.10;;
14847;SDS011;7516;43.570;1.448;2023-12-20T01:02:38;11.30;;;8.73;;
14847;SDS011;7516;43.570;1.448;2023-12-20T01:05:08;10.27;;;8.63;;
14847;SDS011;7516;43.570;1.448;2023-12-20T01:07:35;11.43;;;9.27;;
14847;SDS011;7516;43.570;1.448;2023-12-20T01:10:03;12.30;;;9.00;;
14847;SDS011;7516;43.570;1.448;2023-12-20T01:12:30;11.97;;;9.13;;
14847;SDS011;7516;43.570;1.448;2023-12-20T01:14:58;10.93;;;9.03;;
14847;SDS011;7516;43.570;1.448;2023-12-20T01:17:25;11.37;;;8.57;;
14847;SDS011;7516;43.570;1.448;2023-12-20T01:19:53;10.60;;;8.47;;
14847;SDS011;7516;43.570;1.448;2023-12-20T01:22:22;10.93;;;7.90;;
14847;SDS011;7516;43.570;1.448;2023-12-20T01:24:49;9.37;;;8.20;;
14847;SDS011;7516;43.570;1.448;2023-12-20T01:27:17;11.47;;;7.80;;
14847;SDS011;7516;43.570;1.448;2023-12-20T01:29:44;10.27;;;8.07;;
14847;SDS011;7516;43.570;1.448;2023-12-20T01:32:12;9.37;;;7.57;;
14847;SDS011;7516;43.570;1.448;2023-12-20T01:34:39;9.63;;;7.43;;
14847;SDS011;7516;43.570;1.448;2023-12-20T01:37:07;11.07;;;8.10;;
14847;SDS011;7516;43.570;1.448;2023-12-20T01:39:35;9.77;;;8.20;;
14847;SDS011;7516;43.570;1.448;2023-12-20T01:42:03;9.43;;;8.03;;
14847;SDS011;7516;43.570;1.448;2023-12-20T01:44:31;9.77;;;8.07;;
14847;SDS011;7516;43.570;1.448;2023-12-20T01:46:58;10.17;;;8.00;;
14847;SDS011;7516;43.570;1.448;2023-12-20T01:49:26;10.10;;;7.53;;
14847;SDS011;7516;43.570;1.448;2023-12-20T01:51:54;10.13;;;8.03;;
14847;SDS011;7516;43.570;1.448;2023-12-20T01:54:25;10.37;;;7.33;;
14847;SDS011;7516;43.570;1.448;2023-12-20T01:56:54;9.30;;;7.50;;
14847;SDS011;7516;43.570;1.448;2023-12-20T01:59:23;9.27;;;8.10;;
14847;SDS011;7516;43.570;1.448;2023-12-20T02:01:50;9.93;;;8.27;;
14847;SDS011;7516;43.570;1.448;2023-12-20T02:04:18;9.73;;;7.53;;
14847;SDS011;7516;43.570;1.448;2023-12-20T02:06:46;10.50;;;8.20;;
14847;SDS011;7516;43.570;1.448;2023-12-20T02:09:14;8.73;;;7.67;;
14847;SDS011;7516;43.570;1.448;2023-12-20T02:11:42;11.00;;;7.90;;
14847;SDS011;7516;43.570;1.448;2023-12-20T02:14:11;8.97;;;7.37;;
14847;SDS011;7516;43.570;1.448;2023-12-20T02:16:39;10.43;;;8.10;;
14847;SDS011;7516;43.570;1.448;2023-12-20T02:19:09;9.73;;;7.63;;
14847;SDS011;7516;43.570;1.448;2023-12-20T02:21:42;9.13;;;7.20;;
14847;SDS011;7516;43.570;1.448;2023-12-20T02:24:09;7.97;;;6.47;;
14847;SDS011;7516;43.570;1.448;2023-12-20T02:26:37;9.93;;;6.73;;
14847;SDS011;7516;43.570;1.448;2023-12-20T02:29:05;7.73;;;6.60;;
14847;SDS011;7516;43.570;1.448;2023-12-20T02:31:33;7.30;;;6.37;;
14847;SDS011;7516;43.570;1.448;2023-12-20T02:34:00;9.93;;;7.23;;
14847;SDS011;7516;43.570;1.448;2023-12-20T02:36:28;7.73;;;5.97;;
14847;SDS011;7516;43.570;1.448;2023-12-20T02:38:57;7.73;;;6.53;;
14847;SDS011;7516;43.570;1.448;2023-12-20T02:41:24;8.17;;;6.80;;
14847;SDS011;7516;43.570;1.448;2023-12-20T02:43:52;8.07;;;6.70;;
14847;SDS011;7516;43.570;1.448;2023-12-20T02:46:19;8.03;;;6.50;;
14847;SDS011;7516;43.570;1.448;2023-12-20T02:48:47;9.30;;;6.83;;
14847;SDS011;7516;43.570;1.448;2023-12-20T02:51:14;9.57;;;6.83;;
14847;SDS011;7516;43.570;1.448;2023-12-20T02:53:41;7.83;;;6.80;;
14847;SDS011;7516;43.570;1.448;2023-12-20T02:56:10;7.80;;;6.70;;
14847;SDS011;7516;43.570;1.448;2023-12-20T02:58:39;8.33;;;7.20;;
14847;SDS011;7516;43.570;1.448;2023-12-20T03:01:07;9.30;;;7.07;;
14847;SDS011;7516;43.570;1.448;2023-12-20T03:03:34;8.33;;;6.73;;
14847;SDS011;7516;43.570;1.448;2023-12-20T03:06:02;8.10;;;7.00;;
14847;SDS011;7516;43.570;1.448;2023-12-20T03:08:30;8.23;;;6.37;;
14847;SDS011;7516;43.570;1.448;2023-12-20T03:10:58;6.97;;;6.27;;
14847;SDS011;7516;43.570;1.448;2023-12-20T03:13:28;6.97;;;6.27;;
14847;SDS011;7516;43.570;1.448;2023-12-20T03:15:55;7.27;;;6.57;;
14847;SDS011;7516;43.570;1.448;2023-12-20T03:18:23;6.83;;;6.13;;
14847;SDS011;7516;43.570;1.448;2023-12-20T03:20:53;7.80;;;7.00;;
14847;SDS011;7516;43.570;1.448;2023-12-20T03:23:20;8.23;;;7.43;;
14847;SDS011;7516;43.570;1.448;2023-12-20T03:25:48;7.77;;;6.43;;
14847;SDS011;7516;43.570;1.448;2023-12-20T03:28:15;8.23;;;6.20;;
14847;SDS011;7516;43.570;1.448;2023-12-20T03:30:44;8.73;;;6.70;;
14847;SDS011;7516;43.570;1.448;2023-12-20T03:33:11;8.93;;;6.93;;
14847;SDS011;7516;43.570;1.448;2023-12-20T03:35:39;7.30;;;6.60;;
14847;SDS011;7516;43.570;1.448;2023-12-20T03:38:06;8.40;;;6.83;;
14847;SDS011;7516;43.570;1.448;2023-12-20T03:40:34;7.80;;;6.90;;
14847;SDS011;7516;43.570;1.448;2023-12-20T03:43:02;7.87;;;7.07;;
14847;SDS011;7516;43.570;1.448;2023-12-20T03:45:29;9.40;;;7.10;;
14847;SDS011;7516;43.570;1.448;2023-12-20T03:47:58;7.63;;;6.90;;
14847;SDS011;7516;43.570;1.448;2023-12-20T03:50:26;10.03;;;7.43;;
14847;SDS011;7516;43.570;1.448;2023-12-20T03:52:54;8.37;;;7.23;;
14847;SDS011;7516;43.570;1.448;2023-12-20T03:55:22;8.13;;;6.80;;
14847;SDS011;7516;43.570;1.448;2023-12-20T03:57:49;9.93;;;7.00;;
14847;SDS011;7516;43.570;1.448;2023-12-20T04:00:17;7.17;;;6.47;;
14847;SDS011;7516;43.570;1.448;2023-12-20T04:02:44;8.40;;;6.70;;
14847;SDS011;7516;43.570;1.448;2023-12-20T04:05:13;8.87;;;6.70;;
14847;SDS011;7516;43.570;1.448;2023-12-20T04:07:41;8.53;;;6.50;;
14847;SDS011;7516;43.570;1.448;2023-12-20T04:10:09;8.00;;;7.00;;
14847;SDS011;7516;43.570;1.448;2023-12-20T04:12:36;9.63;;;7.33;;
14847;SDS011;7516;43.570;1.448;2023-12-20T04:15:04;7.93;;;7.03;;
14847;SDS011;7516;43.570;1.448;2023-12-20T04:17:34;8.60;;;6.83;;
14847;SDS011;7516;43.570;1.448;2023-12-20T04:20:02;7.40;;;6.70;;
14847;SDS011;7516;43.570;1.448;2023-12-20T04:22:31;6.83;;;6.20;;
14847;SDS011;7516;43.570;1.448;2023-12-20T04:24:59;8.33;;;7.43;;
14847;SDS011;7516;43.570;1.448;2023-12-20T04:27:26;8.20;;;6.80;;
14847;SDS011;7516;43.570;1.448;2023-12-20T04:29:54;7.70;;;6.77;;
14847;SDS011;7516;43.570;1.448;2023-12-20T04:32:22;7.90;;;6.67;;
14847;SDS011;7516;43.570;1.448;2023-12-20T04:34:49;7.60;;;6.43;;
14847;SDS011;7516;43.570;1.448;2023-12-20T04:37:17;7.50;;;6.33;;
14847;SDS011;7516;43.570;1.448;2023-12-20T04:39:45;7.33;;;6.63;;
14847;SDS011;7516;43.570;1.448;2023-12-20T04:42:13;7.43;;;6.33;;
14847;SDS011;7516;43.570;1.448;2023-12-20T04:44:40;7.13;;;6.43;;
14847;SDS011;7516;43.570;1.448;2023-12-20T04:47:08;8.53;;;6.60;;
14847;SDS011;7516;43.570;1.448;2023-12-20T04:49:36;6.77;;;6.07;;
14847;SDS011;7516;43.570;1.448;2023-12-20T04:52:04;7.50;;;6.23;;
14847;SDS011;7516;43.570;1.448;2023-12-20T04:54:32;7.03;;;6.33;;
14847;SDS011;7516;43.570;1.448;2023-12-20T04:57:00;7.07;;;6.13;;
14847;SDS011;7516;43.570;1.448;2023-12-20T04:59:28;6.20;;;5.60;;
14847;SDS011;7516;43.570;1.448;2023-12-20T05:01:56;7.23;;;6.03;;
14847;SDS011;7516;43.570;1.448;2023-12-20T05:04:23;6.23;;;5.63;;
14847;SDS011;7516;43.570;1.448;2023-12-20T05:06:51;6.13;;;5.53;;
14847;SDS011;7516;43.570;1.448;2023-12-20T05:09:18;6.33;;;5.60;;
14847;SDS011;7516;43.570;1.448;2023-12-20T05:11:46;6.07;;;5.37;;
14847;SDS011;7516;43.570;1.448;2023-12-20T05:14:14;7.13;;;5.07;;
14847;SDS011;7516;43.570;1.448;2023-12-20T05:16:42;6.17;;;5.40;;
14847;SDS011;7516;43.570;1.448;2023-12-20T05:19:09;6.60;;;5.63;;
14847;SDS011;7516;43.570;1.448;2023-12-20T05:21:37;5.40;;;4.90;;
14847;SDS011;7516;43.570;1.448;2023-12-20T05:24:04;5.63;;;5.03;;
14847;SDS011;7516;43.570;1.448;2023-12-20T05:26:32;6.37;;;4.53;;
14847;SDS011;7516;43.570;1.448;2023-12-20T05:28:59;4.60;;;3.80;;
14847;SDS011;7516;43.570;1.448;2023-12-20T05:31:28;5.33;;;3.97;;
14847;SDS011;7516;43.570;1.448;2023-12-20T05:33:56;5.47;;;4.30;;
14847;SDS011;7516;43.570;1.448;2023-12-20T05:36:23;4.23;;;3.83;;
14847;SDS011;7516;43.570;1.448;2023-12-20T05:38:53;4.43;;;3.90;;
14847;SDS011;7516;43.570;1.448;2023-12-20T05:41:21;3.97;;;3.57;;
14847;SDS011;7516;43.570;1.448;2023-12-20T05:43:48;4.30;;;3.07;;
14847;SDS011;7516;43.570;1.448;2023-12-20T05:46:16;3.50;;;3.00;;
14847;SDS011;7516;43.570;1.448;2023-12-20T05:48:45;3.13;;;2.60;;
14847;SDS011;7516;43.570;1.448;2023-12-20T05:51:12;2.30;;;2.10;;
14847;SDS011;7516;43.570;1.448;2023-12-20T05:53:40;3.00;;;2.10;;
14847;SDS011;7516;43.570;1.448;2023-12-20T05:56:07;2.20;;;2.00;;
14847;SDS011;7516;43.570;1.448;2023-12-20T05:58:35;2.50;;;2.30;;
14847;SDS011;7516;43.570;1.448;2023-12-20T06:01:03;4.33;;;2.10;;
14847;SDS011;7516;43.570;1.448;2023-12-20T06:03:31;2.23;;;1.80;;
14847;SDS011;7516;43.570;1.448;2023-12-20T06:06:00;1.90;;;1.70;;
14847;SDS011;7516;43.570;1.448;2023-12-20T06:08:32;3.90;;;1.77;;
14847;SDS011;7516;43.570;1.448;2023-12-20T06:11:00;2.27;;;2.00;;
14847;SDS011;7516;43.570;1.448;2023-12-20T06:13:27;2.00;;;1.80;;
14847;SDS011;7516;43.570;1.448;2023-12-20T06:15:55;1.80;;;1.70;;
14847;SDS011;7516;43.570;1.448;2023-12-20T06:18:23;1.67;;;1.57;;
14847;SDS011;7516;43.570;1.448;2023-12-20T06:20:50;1.97;;;1.73;;
14847;SDS011;7516;43.570;1.448;2023-12-20T06:23:19;1.97;;;1.50;;
14847;SDS011;7516;43.570;1.448;2023-12-20T06:25:47;2.13;;;1.63;;
14847;SDS011;7516;43.570;1.448;2023-12-20T06:28:14;1.83;;;1.40;;
14847;SDS011;7516;43.570;1.448;2023-12-20T06:30:42;2.40;;;1.60;;
14847;SDS011;7516;43.570;1.448;2023-12-20T06:33:09;1.77;;;1.67;;
14847;SDS011;7516;43.570;1.448;2023-12-20T06:35:36;1.67;;;1.43;;
14847;SDS011;7516;43.570;1.448;2023-12-20T06:38:04;2.87;;;1.20;;
14847;SDS011;7516;43.570;1.448;2023-12-20T06:40:33;1.60;;;1.50;;
14847;SDS011;7516;43.570;1.448;2023-12-20T06:43:00;1.60;;;1.50;;
14847;SDS011;7516;43.570;1.448;2023-12-20T06:45:28;1.67;;;1.37;;
14847;SDS011;7516;43.570;1.448;2023-12-20T06:47:55;1.67;;;1.57;;
14847;SDS011;7516;43.570;1.448;2023-12-20T06:50:23;2.03;;;1.60;;
14847;SDS011;7516;43.570;1.448;2023-12-20T06:52:51;1.60;;;1.50;;
14847;SDS011;7516;43.570;1.448;2023-12-20T06:55:18;1.47;;;1.37;;
14847;SDS011;7516;43.570;1.448;2023-12-20T06:57:47;1.60;;;1.43;;
14847;SDS011;7516;43.570;1.448;2023-12-20T07:00:15;1.47;;;1.37;;
14847;SDS011;7516;43.570;1.448;2023-12-20T07:02:45;1.90;;;1.40;;
14847;SDS011;7516;43.570;1.448;2023-12-20T07:05:12;2.43;;;1.40;;
14847;SDS011;7516;43.570;1.448;2023-12-20T07:07:45;1.50;;;1.20;;
14847;SDS011;7516;43.570;1.448;2023-12-20T07:10:12;1.80;;;0.93;;
14847;SDS011;7516;43.570;1.448;2023-12-20T07:12:40;1.50;;;1.00;;
14847;SDS011;7516;43.570;1.448;2023-12-20T07:15:09;1.10;;;1.00;;
14847;SDS011;7516;43.570;1.448;2023-12-20T07:17:37;1.20;;;1.10;;
14847;SDS011;7516;43.570;1.448;2023-12-20T07:20:05;1.20;;;1.07;;
14847;SDS011;7516;43.570;1.448;2023-12-20T07:22:35;1.40;;;1.30;;
14847;SDS011;7516;43.570;1.448;2023-12-20T07:25:05;2.17;;;1.20;;
14847;SDS011;7516;43.570;1.448;2023-12-20T07:27:33;1.90;;;1.33;;
14847;SDS011;7516;43.570;1.448;2023-12-20T07:30:00;1.87;;;1.37;;
14847;SDS011;7516;43.570;1.448;2023-12-20T07:32:29;1.60;;;1.00;;
14847;SDS011;7516;43.570;1.448;2023-12-20T07:34:57;1.50;;;1.40;;
14847;SDS011;7516;43.570;1.448;2023-12-20T07:37:25;1.83;;;1.40;;
14847;SDS011;7516;43.570;1.448;2023-12-20T07:39:53;2.37;;;1.30;;
14847;SDS011;7516;43.570;1.448;2023-12-20T07:42:20;1.40;;;1.30;;
14847;SDS011;7516;43.570;1.448;2023-12-20T07:44:48;1.30;;;1.20;;
14847;SDS011;7516;43.570;1.448;2023-12-20T07:47:15;1.43;;;1.33;;
14847;SDS011;7516;43.570;1.448;2023-12-20T07:49:48;1.57;;;1.40;;
14847;SDS011;7516;43.570;1.448;2023-12-20T07:52:16;2.37;;;1.37;;
14847;SDS011;7516;43.570;1.448;2023-12-20T07:54:44;2.73;;;1.40;;
14847;SDS011;7516;43.570;1.448;2023-12-20T07:57:12;2.80;;;1.50;;
14847;SDS011;7516;43.570;1.448;2023-12-20T07:59:39;2.20;;;1.40;;
14847;SDS011;7516;43.570;1.448;2023-12-20T08:02:07;1.40;;;1.30;;
14847;SDS011;7516;43.570;1.448;2023-12-20T08:04:35;1.33;;;1.23;;
14847;SDS011;7516;43.570;1.448;2023-12-20T08:07:04;2.60;;;1.33;;
14847;SDS011;7516;43.570;1.448;2023-12-20T08:09:31;1.20;;;1.10;;
14847;SDS011;7516;43.570;1.448;2023-12-20T08:12:01;1.50;;;1.30;;
14847;SDS011;7516;43.570;1.448;2023-12-20T08:14:29;1.73;;;1.20;;
14847;SDS011;7516;43.570;1.448;2023-12-20T08:16:57;1.83;;;1.30;;
14847;SDS011;7516;43.570;1.448;2023-12-20T08:19:25;1.33;;;1.20;;
14847;SDS011;7516;43.570;1.448;2023-12-20T08:21:52;1.77;;;1.40;;
14847;SDS011;7516;43.570;1.448;2023-12-20T08:24:21;1.33;;;1.23;;
14847;SDS011;7516;43.570;1.448;2023-12-20T08:26:48;2.47;;;1.30;;
14847;SDS011;7516;43.570;1.448;2023-12-20T08:29:16;1.53;;;1.20;;
14847;SDS011;7516;43.570;1.448;2023-12-20T08:31:44;1.97;;;1.40;;
14847;SDS011;7516;43.570;1.448;2023-12-20T08:34:11;1.20;;;1.10;;
14847;SDS011;7516;43.570;1.448;2023-12-20T08:36:40;1.33;;;1.10;;
14847;SDS011;7516;43.570;1.448;2023-12-20T08:39:07;1.67;;;1.30;;
14847;SDS011;7516;43.570;1.448;2023-12-20T08:41:36;1.37;;;1.27;;
14847;SDS011;7516;43.570;1.448;2023-12-20T08:44:04;1.70;;;1.30;;
14847;SDS011;7516;43.570;1.448;2023-12-20T08:46:31;2.33;;;1.20;;
14847;SDS011;7516;43.570;1.448;2023-12-20T08:48:59;1.63;;;1.40;;
14847;SDS011;7516;43.570;1.448;2023-12-20T08:51:29;1.50;;;1.40;;
14847;SDS011;7516;43.570;1.448;2023-12-20T08:53:57;1.70;;;1.60;;
14847;SDS011;7516;43.570;1.448;2023-12-20T08:56:24;1.87;;;1.60;;
14847;SDS011;7516;43.570;1.448;2023-12-20T08:58:53;2.30;;;1.87;;
14847;SDS011;7516;43.570;1.448;2023-12-20T09:01:21;2.00;;;1.67;;
14847;SDS011;7516;43.570;1.448;2023-12-20T09:03:49;3.00;;;1.80;;
14847;SDS011;7516;43.570;1.448;2023-12-20T09:06:16;3.37;;;1.60;;
14847;SDS011;7516;43.570;1.448;2023-12-20T09:08:44;1.87;;;1.67;;
14847;SDS011;7516;43.570;1.448;2023-12-20T09:11:11;2.00;;;1.87;;
14847;SDS011;7516;43.570;1.448;2023-12-20T09:13:39;1.90;;;1.70;;
14847;SDS011;7516;43.570;1.448;2023-12-20T09:16:08;2.40;;;1.77;;
14847;SDS011;7516;43.570;1.448;2023-12-20T09:18:36;2.10;;;1.87;;
14847;SDS011;7516;43.570;1.448;2023-12-20T09:21:03;1.60;;;1.50;;
14847;SDS011;7516;43.570;1.448;2023-12-20T09:23:31;1.70;;;1.60;;
14847;SDS011;7516;43.570;1.448;2023-12-20T09:25:58;2.63;;;1.90;;
14847;SDS011;7516;43.570;1.448;2023-12-20T09:28:26;2.10;;;1.87;;
14847;SDS011;7516;43.570;1.448;2023-12-20T09:30:53;3.60;;;2.17;;
14847;SDS011;7516;43.570;1.448;2023-12-20T09:33:22;1.90;;;1.70;;
14847;SDS011;7516;43.570;1.448;2023-12-20T09:35:50;2.03;;;1.67;;
14847;SDS011;7516;43.570;1.448;2023-12-20T09:38:17;2.53;;;1.70;;
14847;SDS011;7516;43.570;1.448;2023-12-20T09:40:45;2.47;;;1.47;;
14847;SDS011;7516;43.570;1.448;2023-12-20T09:43:14;2.83;;;1.60;;
14847;SDS011;7516;43.570;1.448;2023-12-20T09:45:41;2.57;;;1.60;;
14847;SDS011;7516;43.570;1.448;2023-12-20T09:48:12;2.57;;;1.30;;
14847;SDS011;7516;43.570;1.448;2023-12-20T09:50:45;1.73;;;1.30;;
14847;SDS011;7516;43.570;1.448;2023-12-20T09:53:14;3.00;;;1.23;;
14847;SDS011;7516;43.570;1.448;2023-12-20T09:55:44;2.77;;;1.10;;
14847;SDS011;7516;43.570;1.448;2023-12-20T09:58:12;1.73;;;1.30;;
14847;SDS011;7516;43.570;1.448;2023-12-20T10:00:39;3.15;;;1.30;;
14847;SDS011;7516;43.570;1.448;2023-12-20T10:03:07;2.80;;;1.40;;
14847;SDS011;7516;43.570;1.448;2023-12-20T10:05:37;1.87;;;0.90;;
14847;SDS011;7516;43.570;1.448;2023-12-20T10:08:10;4.37;;;1.33;;
14847;SDS011;7516;43.570;1.448;2023-12-20T10:10:38;1.73;;;1.40;;
14847;SDS011;7516;43.570;1.448;2023-12-20T10:13:06;1.63;;;1.27;;
14847;SDS011;7516;43.570;1.448;2023-12-20T10:15:35;2.13;;;1.17;;
14847;SDS011;7516;43.570;1.448;2023-12-20T10:18:04;3.77;;;1.53;;
14847;SDS011;7516;43.570;1.448;2023-12-20T10:20:32;1.87;;;1.17;;
14847;SDS011;7516;43.570;1.448;2023-12-20T10:23:00;2.43;;;1.40;;
14847;SDS011;7516;43.570;1.448;2023-12-20T10:25:30;2.43;;;1.30;;
14847;SDS011;7516;43.570;1.448;2023-12-20T10:30:42;3.90;;;1.30;;
14847;SDS011;7516;43.570;1.448;2023-12-20T10:33:10;2.03;;;1.10;;
14847;SDS011;7516;43.570;1.448;2023-12-20T10:35:38;1.90;;;1.20;;
14847;SDS011;7516;43.570;1.448;2023-12-20T10:38:06;2.30;;;1.30;;
14847;SDS011;7516;43.570;1.448;2023-12-20T10:40:36;1.80;;;1.40;;
14847;SDS011;7516;43.570;1.448;2023-12-20T10:43:04;2.20;;;1.30;;
14847;SDS011;7516;43.570;1.448;2023-12-20T10:45:32;2.07;;;1.23;;
14847;SDS011;7516;43.570;1.448;2023-12-20T10:48:00;3.63;;;1.30;;
14847;SDS011;7516;43.570;1.448;2023-12-20T10:50:29;2.27;;;1.50;;
14847;SDS011;7516;43.570;1.448;2023-12-20T10:53:00;3.13;;;1.20;;
14847;SDS011;7516;43.570;1.448;2023-12-20T10:55:28;2.90;;;1.40;;
14847;SDS011;7516;43.570;1.448;2023-12-20T10:58:01;1.77;;;1.23;;
14847;SDS011;7516;43.570;1.448;2023-12-20T11:00:33;1.70;;;1.20;;
14847;SDS011;7516;43.570;1.448;2023-12-20T11:03:04;2.50;;;1.20;;
14847;SDS011;7516;43.570;1.448;2023-12-20T11:05:36;4.83;;;1.27;;
14847;SDS011;7516;43.570;1.448;2023-12-20T11:08:10;3.93;;;1.37;;
14847;SDS011;7516;43.570;1.448;2023-12-20T11:10:42;2.40;;;1.20;;
14847;SDS011;7516;43.570;1.448;2023-12-20T11:13:20;2.47;;;1.10;;
14847;SDS011;7516;43.570;1.448;2023-12-20T11:15:49;3.50;;;1.10;;
14847;SDS011;7516;43.570;1.448;2023-12-20T11:18:17;3.87;;;1.50;;
14847;SDS011;7516;43.570;1.448;2023-12-20T11:20:44;3.60;;;1.30;;
14847;SDS011;7516;43.570;1.448;2023-12-20T11:23:12;3.97;;;1.57;;
14847;SDS011;7516;43.570;1.448;2023-12-20T11:25:47;2.47;;;1.10;;
14847;SDS011;7516;43.570;1.448;2023-12-20T11:28:22;2.17;;;1.13;;
14847;SDS011;7516;43.570;1.448;2023-12-20T11:30:51;4.67;;;1.33;;
14847;SDS011;7516;43.570;1.448;2023-12-20T11:33:25;3.00;;;1.40;;
14847;SDS011;7516;43.570;1.448;2023-12-20T11:35:56;4.23;;;1.40;;
14847;SDS011;7516;43.570;1.448;2023-12-20T11:38:25;3.87;;;1.30;;
14847;SDS011;7516;43.570;1.448;2023-12-20T11:40:54;5.40;;;1.27;;
14847;SDS011;7516;43.570;1.448;2023-12-20T11:43:35;3.50;;;1.43;;
14847;SDS011;7516;43.570;1.448;2023-12-20T11:46:04;3.80;;;1.30;;
14847;SDS011;7516;43.570;1.448;2023-12-20T11:48:32;4.80;;;1.40;;
14847;SDS011;7516;43.570;1.448;2023-12-20T11:51:02;2.43;;;1.20;;
14847;SDS011;7516;43.570;1.448;2023-12-20T11:53:35;3.10;;;1.20;;
14847;SDS011;7516;43.570;1.448;2023-12-20T11:56:03;3.20;;;1.30;;
14847;SDS011;7516;43.570;1.448;2023-12-20T11:58:33;5.10;;;1.47;;
14847;SDS011;7516;43.570;1.448;2023-12-20T12:01:01;2.27;;;1.23;;
14847;SDS011;7516;43.570;1.448;2023-12-20T12:03:29;4.80;;;1.23;;
14847;SDS011;7516;43.570;1.448;2023-12-20T12:05:57;2.87;;;1.17;;
14847;SDS011;7516;43.570;1.448;2023-12-20T12:08:26;2.30;;;0.90;;
14847;SDS011;7516;43.570;1.448;2023-12-20T12:10:53;2.57;;;1.03;;
14847;SDS011;7516;43.570;1.448;2023-12-20T12:13:21;3.57;;;1.10;;
14847;SDS011;7516;43.570;1.448;2023-12-20T12:15:53;4.00;;;1.10;;
14847;SDS011;7516;43.570;1.448;2023-12-20T12:18:23;1.87;;;0.80;;
14847;SDS011;7516;43.570;1.448;2023-12-20T12:20:59;3.37;;;1.30;;
14847;SDS011;7516;43.570;1.448;2023-12-20T12:23:27;4.47;;;1.23;;
14847;SDS011;7516;43.570;1.448;2023-12-20T12:25:55;4.67;;;1.27;;
14847;SDS011;7516;43.570;1.448;2023-12-20T12:28:25;2.90;;;1.30;;
14847;SDS011;7516;43.570;1.448;2023-12-20T12:30:58;2.27;;;0.80;;
14847;SDS011;7516;43.570;1.448;2023-12-20T12:33:26;2.17;;;0.90;;
14847;SDS011;7516;43.570;1.448;2023-12-20T12:35:54;3.10;;;0.90;;
14847;SDS011;7516;43.570;1.448;2023-12-20T12:38:21;2.73;;;1.00;;
14847;SDS011;7516;43.570;1.448;2023-12-20T12:40:50;3.67;;;1.00;;
14847;SDS011;7516;43.570;1.448;2023-12-20T12:43:18;2.27;;;0.93;;
14847;SDS011;7516;43.570;1.448;2023-12-20T12:45:47;4.23;;;1.27;;
14847;SDS011;7516;43.570;1.448;2023-12-20T12:48:16;2.43;;;1.10;;
14847;SDS011;7516;43.570;1.448;2023-12-20T12:50:45;2.10;;;1.00;;
14847;SDS011;7516;43.570;1.448;2023-12-20T12:53:12;6.87;;;1.50;;
14847;SDS011;7516;43.570;1.448;2023-12-20T12:55:40;4.17;;;1.03;;
14847;SDS011;7516;43.570;1.448;2023-12-20T12:58:07;4.80;;;1.33;;
14847;SDS011;7516;43.570;1.448;2023-12-20T13:00:35;3.67;;;0.93;;
14847;SDS011;7516;43.570;1.448;2023-12-20T13:03:02;3.93;;;1.33;;
14847;SDS011;7516;43.570;1.448;2023-12-20T13:05:31;4.97;;;1.40;;
14847;SDS011;7516;43.570;1.448;2023-12-20T13:07:59;2.53;;;1.00;;
14847;SDS011;7516;43.570;1.448;2023-12-20T13:10:26;4.67;;;1.43;;
14847;SDS011;7516;43.570;1.448;2023-12-20T13:12:54;3.43;;;1.07;;
14847;SDS011;7516;43.570;1.448;2023-12-20T13:15:21;3.03;;;1.00;;
14847;SDS011;7516;43.570;1.448;2023-12-20T13:17:49;3.80;;;1.50;;
14847;SDS011;7516;43.570;1.448;2023-12-20T13:20:16;5.00;;;1.60;;
14847;SDS011;7516;43.570;1.448;2023-12-20T13:22:45;3.10;;;1.00;;
14847;SDS011;7516;43.570;1.448;2023-12-20T13:25:13;4.80;;;1.17;;
14847;SDS011;7516;43.570;1.448;2023-12-20T13:27:41;4.27;;;1.10;;
14847;SDS011;7516;43.570;1.448;2023-12-20T13:30:09;4.40;;;1.30;;
14847;SDS011;7516;43.570;1.448;2023-12-20T13:32:36;6.03;;;1.50;;
14847;SDS011;7516;43.570;1.448;2023-12-20T13:35:05;6.27;;;1.83;;
14847;SDS011;7516;43.570;1.448;2023-12-20T13:37:33;4.97;;;1.30;;
14847;SDS011;7516;43.570;1.448;2023-12-20T13:40:05;2.67;;;1.20;;
14847;SDS011;7516;43.570;1.448;2023-12-20T13:42:34;4.67;;;1.53;;
14847;SDS011;7516;43.570;1.448;2023-12-20T13:45:01;4.67;;;1.93;;
14847;SDS011;7516;43.570;1.448;2023-12-20T13:47:30;4.80;;;1.50;;
14847;SDS011;7516;43.570;1.448;2023-12-20T13:49:57;4.07;;;1.43;;
14847;SDS011;7516;43.570;1.448;2023-12-20T13:52:25;4.03;;;1.43;;
14847;SDS011;7516;43.570;1.448;2023-12-20T13:54:55;5.27;;;1.27;;
14847;SDS011;7516;43.570;1.448;2023-12-20T13:57:30;3.80;;;2.00;;
14847;SDS011;7516;43.570;1.448;2023-12-20T13:59:58;5.43;;;1.57;;
14847;SDS011;7516;43.570;1.448;2023-12-20T14:02:26;4.27;;;1.60;;
14847;SDS011;7516;43.570;1.448;2023-12-20T14:04:53;6.17;;;2.77;;
14847;SDS011;7516;43.570;1.448;2023-12-20T14:07:20;6.40;;;1.83;;
14847;SDS011;7516;43.570;1.448;2023-12-20T14:09:48;5.47;;;1.50;;
14847;SDS011;7516;43.570;1.448;2023-12-20T14:12:15;4.77;;;1.37;;
14847;SDS011;7516;43.570;1.448;2023-12-20T14:14:44;6.10;;;1.50;;
14847;SDS011;7516;43.570;1.448;2023-12-20T14:17:12;6.27;;;2.13;;
14847;SDS011;7516;43.570;1.448;2023-12-20T14:19:39;4.10;;;1.50;;
14847;SDS011;7516;43.570;1.448;2023-12-20T14:22:07;4.13;;;1.27;;
14847;SDS011;7516;43.570;1.448;2023-12-20T14:24:34;3.80;;;1.40;;
14847;SDS011;7516;43.570;1.448;2023-12-20T14:27:02;3.30;;;0.83;;
14847;SDS011;7516;43.570;1.448;2023-12-20T14:29:30;3.30;;;1.27;;
14847;SDS011;7516;43.570;1.448;2023-12-20T14:31:58;3.07;;;1.03;;
14847;SDS011;7516;43.570;1.448;2023-12-20T14:34:28;3.37;;;1.23;;
14847;SDS011;7516;43.570;1.448;2023-12-20T14:36:55;4.47;;;0.93;;
14847;SDS011;7516;43.570;1.448;2023-12-20T14:39:22;4.50;;;1.40;;
14847;SDS011;7516;43.570;1.448;2023-12-20T14:41:50;4.70;;;1.30;;
14847;SDS011;7516;43.570;1.448;2023-12-20T14:44:18;6.47;;;1.63;;
14847;SDS011;7516;43.570;1.448;2023-12-20T14:46:45;3.60;;;1.30;;
14847;SDS011;7516;43.570;1.448;2023-12-20T14:49:14;5.25;;;1.50;;
14847;SDS011;7516;43.570;1.448;2023-12-20T14:51:43;5.27;;;1.60;;
14847;SDS011;7516;43.570;1.448;2023-12-20T14:54:12;3.93;;;1.23;;
14847;SDS011;7516;43.570;1.448;2023-12-20T14:56:40;4.03;;;1.50;;
14847;SDS011;7516;43.570;1.448;2023-12-20T14:59:08;3.43;;;0.97;;
14847;SDS011;7516;43.570;1.448;2023-12-20T15:01:36;4.53;;;1.23;;
14847;SDS011;7516;43.570;1.448;2023-12-20T15:04:05;5.20;;;1.33;;
14847;SDS011;7516;43.570;1.448;2023-12-20T15:06:34;5.80;;;1.63;;
14847;SDS011;7516;43.570;1.448;2023-12-20T15:09:02;2.47;;;1.10;;